sensor_id;sensor_type;location;lat;lon;timestamp;P1;durP1;ratioP1;P2;durP2;ratioP2
8622;SDS011;4349;47.552;8.904;2023-02-13T00:01:36;15.90;;;12.83;;
8622;SDS011;4349;47.552;8.904;2023-02-13T00:04:04;15.30;;;12.97;;
8622;SDS011;4349;47.552;8.904;2023-02-13T00:06:31;13.57;;;12.10;;
8622;SDS011;4349;47.552;8.904;2023-02-13T00:08:59;15.87;;;13.53;;
8622;SDS011;4349;47.552;8.904;2023-02-13T00:11:27;15.40;;;13.47;;
8622;SDS011;4349;47.552;8.904;2023-02-13T00:13:55;14.03;;;12.27;;
8622;SDS011;4349;47.552;8.904;2023-02-13T00:16:22;14.77;;;12.43;;
8622;SDS011;4349;47.552;8.904;2023-02-13T00:18:51;13.60;;;12.07;;
8622;SDS011;4349;47.552;8.904;2023-02-13T00:21:19;15.57;;;12.80;;
8622;SDS011;4349;47.552;8.904;2023-02-13T00:23:47;14.43;;;12.07;;
8622;SDS011;4349;47.552;8.904;2023-02-13T00:26:15;15.63;;;13.00;;
8622;SDS011;4349;47.552;8.904;2023-02-13T00:28:43;15.80;;;12.40;;
8622;SDS011;4349;47.552;8.904;2023-02-13T00:31:11;13.63;;;11.47;;
8622;SDS011;4349;47.552;8.904;2023-02-13T00:33:40;12.43;;;11.13;;
8622;SDS011;4349;47.552;8.904;2023-02-13T00:36:11;14.50;;;12.67;;
8622;SDS011;4349;47.552;8.904;2023-02-13T00:38:39;16.37;;;12.07;;
8622;SDS011;4349;47.552;8.904;2023-02-13T00:41:07;15.63;;;12.20;;
8622;SDS011;4349;47.552;8.904;2023-02-13T00:43:34;13.67;;;12.27;;
8622;SDS011;4349;47.552;8.904;2023-02-13T00:46:02;14.90;;;12.10;;
8622;SDS011;4349;47.552;8.904;2023-02-13T00:48:31;14.10;;;12.60;;
8622;SDS011;4349;47.552;8.904;2023-02-13T00:50:59;13.37;;;11.40;;
8622;SDS011;4349;47.552;8.904;2023-02-13T00:53:30;14.40;;;12.07;;
8622;SDS011;4349;47.552;8.904;2023-02-13T00:55:57;14.87;;;11.50;;
8622;SDS011;4349;47.552;8.904;2023-02-13T00:58:26;13.10;;;11.70;;
8622;SDS011;4349;47.552;8.904;2023-02-13T01:00:55;13.80;;;12.10;;
8622;SDS011;4349;47.552;8.904;2023-02-13T01:03:23;15.73;;;11.87;;
8622;SDS011;4349;47.552;8.904;2023-02-13T01:05:51;14.03;;;11.60;;
8622;SDS011;4349;47.552;8.904;2023-02-13T01:08:19;14.57;;;11.17;;
8622;SDS011;4349;47.552;8.904;2023-02-13T01:10:48;14.03;;;11.50;;
8622;SDS011;4349;47.552;8.904;2023-02-13T01:13:16;15.03;;;11.73;;
8622;SDS011;4349;47.552;8.904;2023-02-13T01:15:45;14.20;;;11.50;;
8622;SDS011;4349;47.552;8.904;2023-02-13T01:18:13;15.07;;;11.67;;
8622;SDS011;4349;47.552;8.904;2023-02-13T01:20:41;14.13;;;11.77;;
8622;SDS011;4349;47.552;8.904;2023-02-13T01:23:10;15.07;;;11.80;;
8622;SDS011;4349;47.552;8.904;2023-02-13T01:25:38;13.33;;;11.27;;
8622;SDS011;4349;47.552;8.904;2023-02-13T01:28:07;14.83;;;11.70;;
8622;SDS011;4349;47.552;8.904;2023-02-13T01:30:35;13.20;;;11.60;;
8622;SDS011;4349;47.552;8.904;2023-02-13T01:33:02;16.13;;;11.70;;
8622;SDS011;4349;47.552;8.904;2023-02-13T01:35:31;14.97;;;12.63;;
8622;SDS011;4349;47.552;8.904;2023-02-13T01:38:00;18.33;;;14.13;;
8622;SDS011;4349;47.552;8.904;2023-02-13T01:40:28;16.47;;;13.40;;
8622;SDS011;4349;47.552;8.904;2023-02-13T01:42:55;17.13;;;13.97;;
8622;SDS011;4349;47.552;8.904;2023-02-13T01:45:25;13.60;;;12.13;;
8622;SDS011;4349;47.552;8.904;2023-02-13T01:47:53;14.77;;;12.33;;
8622;SDS011;4349;47.552;8.904;2023-02-13T01:50:24;17.50;;;13.30;;
8622;SDS011;4349;47.552;8.904;2023-02-13T01:52:52;16.57;;;12.87;;
8622;SDS011;4349;47.552;8.904;2023-02-13T01:55:22;16.77;;;14.10;;
8622;SDS011;4349;47.552;8.904;2023-02-13T01:57:52;20.67;;;16.43;;
8622;SDS011;4349;47.552;8.904;2023-02-13T02:00:21;18.07;;;15.47;;
8622;SDS011;4349;47.552;8.904;2023-02-13T02:02:50;18.03;;;15.00;;
8622;SDS011;4349;47.552;8.904;2023-02-13T02:05:23;15.53;;;13.43;;
8622;SDS011;4349;47.552;8.904;2023-02-13T02:07:53;14.57;;;12.53;;
8622;SDS011;4349;47.552;8.904;2023-02-13T02:10:22;16.20;;;12.53;;
8622;SDS011;4349;47.552;8.904;2023-02-13T02:12:51;15.27;;;13.00;;
8622;SDS011;4349;47.552;8.904;2023-02-13T02:15:19;21.33;;;14.87;;
8622;SDS011;4349;47.552;8.904;2023-02-13T02:17:47;14.67;;;12.90;;
8622;SDS011;4349;47.552;8.904;2023-02-13T02:20:21;17.87;;;14.73;;
8622;SDS011;4349;47.552;8.904;2023-02-13T02:23:01;17.63;;;13.20;;
8622;SDS011;4349;47.552;8.904;2023-02-13T02:28:29;17.33;;;13.57;;
8622;SDS011;4349;47.552;8.904;2023-02-13T02:33:49;17.60;;;14.67;;
8622;SDS011;4349;47.552;8.904;2023-02-13T02:36:27;16.97;;;14.53;;
8622;SDS011;4349;47.552;8.904;2023-02-13T02:39:00;16.27;;;14.23;;
8622;SDS011;4349;47.552;8.904;2023-02-13T02:41:31;18.10;;;15.17;;
8622;SDS011;4349;47.552;8.904;2023-02-13T02:44:20;18.70;;;16.30;;
8622;SDS011;4349;47.552;8.904;2023-02-13T02:47:01;19.37;;;15.87;;
8622;SDS011;4349;47.552;8.904;2023-02-13T02:49:50;18.57;;;16.20;;
8622;SDS011;4349;47.552;8.904;2023-02-13T02:52:29;19.73;;;14.53;;
8622;SDS011;4349;47.552;8.904;2023-02-13T02:54:59;17.40;;;15.50;;
8622;SDS011;4349;47.552;8.904;2023-02-13T02:57:44;18.83;;;15.47;;
8622;SDS011;4349;47.552;8.904;2023-02-13T03:00:31;18.63;;;15.43;;
8622;SDS011;4349;47.552;8.904;2023-02-13T03:03:19;18.57;;;14.77;;
8622;SDS011;4349;47.552;8.904;2023-02-13T03:06:18;19.00;;;15.77;;
8622;SDS011;4349;47.552;8.904;2023-02-13T03:08:50;19.47;;;15.60;;
8622;SDS011;4349;47.552;8.904;2023-02-13T03:11:36;17.03;;;14.87;;
8622;SDS011;4349;47.552;8.904;2023-02-13T03:14:23;20.80;;;15.07;;
8622;SDS011;4349;47.552;8.904;2023-02-13T03:16:51;15.50;;;13.87;;
8622;SDS011;4349;47.552;8.904;2023-02-13T03:19:40;16.40;;;14.37;;
8622;SDS011;4349;47.552;8.904;2023-02-13T03:22:30;16.40;;;14.53;;
8622;SDS011;4349;47.552;8.904;2023-02-13T03:25:06;18.80;;;14.53;;
8622;SDS011;4349;47.552;8.904;2023-02-13T03:27:37;18.57;;;14.40;;
8622;SDS011;4349;47.552;8.904;2023-02-13T03:30:26;16.23;;;14.00;;
8622;SDS011;4349;47.552;8.904;2023-02-13T03:32:58;17.07;;;14.47;;
8622;SDS011;4349;47.552;8.904;2023-02-13T03:35:31;17.63;;;13.67;;
8622;SDS011;4349;47.552;8.904;2023-02-13T03:38:21;17.70;;;14.47;;
8622;SDS011;4349;47.552;8.904;2023-02-13T03:40:52;19.93;;;15.67;;
8622;SDS011;4349;47.552;8.904;2023-02-13T03:43:41;19.00;;;15.57;;
8622;SDS011;4349;47.552;8.904;2023-02-13T03:46:10;22.77;;;16.90;;
8622;SDS011;4349;47.552;8.904;2023-02-13T03:48:38;26.03;;;18.37;;
8622;SDS011;4349;47.552;8.904;2023-02-13T03:51:25;26.37;;;19.20;;
8622;SDS011;4349;47.552;8.904;2023-02-13T03:53:55;28.87;;;20.70;;
8622;SDS011;4349;47.552;8.904;2023-02-13T03:56:23;30.53;;;20.30;;
8622;SDS011;4349;47.552;8.904;2023-02-13T03:59:17;30.13;;;20.77;;
8622;SDS011;4349;47.552;8.904;2023-02-13T04:01:48;29.93;;;20.03;;
8622;SDS011;4349;47.552;8.904;2023-02-13T04:04:18;28.93;;;19.83;;
8622;SDS011;4349;47.552;8.904;2023-02-13T04:06:48;29.07;;;20.17;;
8622;SDS011;4349;47.552;8.904;2023-02-13T04:09:18;28.73;;;19.93;;
8622;SDS011;4349;47.552;8.904;2023-02-13T04:11:48;28.73;;;20.37;;
8622;SDS011;4349;47.552;8.904;2023-02-13T04:14:18;27.17;;;19.10;;
8622;SDS011;4349;47.552;8.904;2023-02-13T04:16:48;31.77;;;21.37;;
8622;SDS011;4349;47.552;8.904;2023-02-13T04:19:16;26.27;;;18.77;;
8622;SDS011;4349;47.552;8.904;2023-02-13T04:21:43;23.77;;;16.53;;
8622;SDS011;4349;47.552;8.904;2023-02-13T04:24:15;21.53;;;15.37;;
8622;SDS011;4349;47.552;8.904;2023-02-13T04:26:44;20.80;;;14.43;;
8622;SDS011;4349;47.552;8.904;2023-02-13T04:29:11;20.43;;;15.10;;
8622;SDS011;4349;47.552;8.904;2023-02-13T04:31:39;18.37;;;14.97;;
8622;SDS011;4349;47.552;8.904;2023-02-13T04:34:07;19.17;;;15.20;;
8622;SDS011;4349;47.552;8.904;2023-02-13T04:36:34;17.80;;;13.33;;
8622;SDS011;4349;47.552;8.904;2023-02-13T04:39:02;16.97;;;13.47;;
8622;SDS011;4349;47.552;8.904;2023-02-13T04:41:29;20.03;;;14.20;;
8622;SDS011;4349;47.552;8.904;2023-02-13T04:43:58;16.87;;;13.83;;
8622;SDS011;4349;47.552;8.904;2023-02-13T04:46:26;17.83;;;13.90;;
8622;SDS011;4349;47.552;8.904;2023-02-13T04:48:53;20.47;;;14.60;;
8622;SDS011;4349;47.552;8.904;2023-02-13T04:51:21;20.53;;;14.83;;
8622;SDS011;4349;47.552;8.904;2023-02-13T04:53:48;19.70;;;16.17;;
8622;SDS011;4349;47.552;8.904;2023-02-13T04:56:16;18.97;;;14.57;;
8622;SDS011;4349;47.552;8.904;2023-02-13T04:58:45;21.10;;;16.50;;
8622;SDS011;4349;47.552;8.904;2023-02-13T05:01:14;19.93;;;16.40;;
8622;SDS011;4349;47.552;8.904;2023-02-13T05:03:42;23.27;;;16.90;;
8622;SDS011;4349;47.552;8.904;2023-02-13T05:06:10;22.90;;;16.90;;
8622;SDS011;4349;47.552;8.904;2023-02-13T05:08:37;21.60;;;16.63;;
8622;SDS011;4349;47.552;8.904;2023-02-13T05:11:05;20.90;;;16.70;;
8622;SDS011;4349;47.552;8.904;2023-02-13T05:13:32;20.00;;;15.80;;
8622;SDS011;4349;47.552;8.904;2023-02-13T05:16:00;25.00;;;17.53;;
8622;SDS011;4349;47.552;8.904;2023-02-13T05:18:29;24.60;;;17.47;;
8622;SDS011;4349;47.552;8.904;2023-02-13T05:20:56;29.10;;;19.40;;
8622;SDS011;4349;47.552;8.904;2023-02-13T05:23:41;28.97;;;20.03;;
8622;SDS011;4349;47.552;8.904;2023-02-13T05:26:09;30.47;;;20.30;;
8622;SDS011;4349;47.552;8.904;2023-02-13T05:28:36;32.30;;;21.63;;
8622;SDS011;4349;47.552;8.904;2023-02-13T05:31:21;29.50;;;19.90;;
8622;SDS011;4349;47.552;8.904;2023-02-13T05:33:50;32.07;;;20.97;;
8622;SDS011;4349;47.552;8.904;2023-02-13T05:36:18;34.77;;;21.50;;
8622;SDS011;4349;47.552;8.904;2023-02-13T05:38:45;31.07;;;20.60;;
8622;SDS011;4349;47.552;8.904;2023-02-13T05:41:13;31.17;;;20.07;;
8622;SDS011;4349;47.552;8.904;2023-02-13T05:43:40;34.57;;;21.77;;
8622;SDS011;4349;47.552;8.904;2023-02-13T05:46:08;30.63;;;21.00;;
8622;SDS011;4349;47.552;8.904;2023-02-13T05:48:36;31.03;;;20.80;;
8622;SDS011;4349;47.552;8.904;2023-02-13T05:51:05;33.53;;;21.90;;
8622;SDS011;4349;47.552;8.904;2023-02-13T05:53:33;30.90;;;20.73;;
8622;SDS011;4349;47.552;8.904;2023-02-13T05:56:02;32.17;;;21.00;;
8622;SDS011;4349;47.552;8.904;2023-02-13T05:58:29;33.40;;;21.17;;
8622;SDS011;4349;47.552;8.904;2023-02-13T06:00:58;30.80;;;20.63;;
8622;SDS011;4349;47.552;8.904;2023-02-13T06:03:27;31.27;;;20.03;;
8622;SDS011;4349;47.552;8.904;2023-02-13T06:05:56;33.70;;;21.60;;
8622;SDS011;4349;47.552;8.904;2023-02-13T06:08:26;30.37;;;20.83;;
8622;SDS011;4349;47.552;8.904;2023-02-13T06:10:54;30.47;;;20.77;;
8622;SDS011;4349;47.552;8.904;2023-02-13T06:13:22;35.93;;;22.03;;
8622;SDS011;4349;47.552;8.904;2023-02-13T06:15:50;34.57;;;21.77;;
8622;SDS011;4349;47.552;8.904;2023-02-13T06:18:18;34.20;;;22.23;;
8622;SDS011;4349;47.552;8.904;2023-02-13T06:20:45;33.60;;;22.40;;
8622;SDS011;4349;47.552;8.904;2023-02-13T06:23:13;31.43;;;20.63;;
8622;SDS011;4349;47.552;8.904;2023-02-13T06:25:43;32.33;;;21.63;;
8622;SDS011;4349;47.552;8.904;2023-02-13T06:28:12;32.33;;;21.77;;
8622;SDS011;4349;47.552;8.904;2023-02-13T06:30:40;32.07;;;21.00;;
8622;SDS011;4349;47.552;8.904;2023-02-13T06:33:07;31.17;;;21.00;;
8622;SDS011;4349;47.552;8.904;2023-02-13T06:35:36;33.27;;;21.40;;
8622;SDS011;4349;47.552;8.904;2023-02-13T06:38:04;30.53;;;20.13;;
8622;SDS011;4349;47.552;8.904;2023-02-13T06:40:33;31.07;;;21.20;;
8622;SDS011;4349;47.552;8.904;2023-02-13T06:43:02;29.27;;;20.10;;
8622;SDS011;4349;47.552;8.904;2023-02-13T06:45:30;31.03;;;20.57;;
8622;SDS011;4349;47.552;8.904;2023-02-13T06:47:58;29.93;;;20.47;;
8622;SDS011;4349;47.552;8.904;2023-02-13T06:50:26;32.80;;;21.23;;
8622;SDS011;4349;47.552;8.904;2023-02-13T06:52:54;34.73;;;20.83;;
8622;SDS011;4349;47.552;8.904;2023-02-13T06:55:22;31.93;;;21.17;;
8622;SDS011;4349;47.552;8.904;2023-02-13T06:57:49;33.20;;;22.17;;
8622;SDS011;4349;47.552;8.904;2023-02-13T07:00:19;32.53;;;21.10;;
8622;SDS011;4349;47.552;8.904;2023-02-13T07:02:48;34.00;;;21.40;;
8622;SDS011;4349;47.552;8.904;2023-02-13T07:05:17;31.37;;;20.73;;
8622;SDS011;4349;47.552;8.904;2023-02-13T07:07:44;32.47;;;21.77;;
8622;SDS011;4349;47.552;8.904;2023-02-13T07:10:13;31.27;;;20.30;;
8622;SDS011;4349;47.552;8.904;2023-02-13T07:12:41;30.47;;;20.20;;
8622;SDS011;4349;47.552;8.904;2023-02-13T07:15:15;34.47;;;20.77;;
8622;SDS011;4349;47.552;8.904;2023-02-13T07:17:45;31.73;;;20.33;;
8622;SDS011;4349;47.552;8.904;2023-02-13T07:20:13;29.40;;;19.73;;
8622;SDS011;4349;47.552;8.904;2023-02-13T07:22:43;32.63;;;21.40;;
8622;SDS011;4349;47.552;8.904;2023-02-13T07:25:11;38.17;;;23.23;;
8622;SDS011;4349;47.552;8.904;2023-02-13T07:27:39;30.77;;;21.70;;
8622;SDS011;4349;47.552;8.904;2023-02-13T07:30:08;34.57;;;22.00;;
8622;SDS011;4349;47.552;8.904;2023-02-13T07:32:35;31.13;;;20.93;;
8622;SDS011;4349;47.552;8.904;2023-02-13T07:35:04;33.07;;;21.43;;
8622;SDS011;4349;47.552;8.904;2023-02-13T07:37:32;35.00;;;21.73;;
8622;SDS011;4349;47.552;8.904;2023-02-13T07:39:59;31.37;;;21.07;;
8622;SDS011;4349;47.552;8.904;2023-02-13T07:42:32;32.83;;;21.83;;
8622;SDS011;4349;47.552;8.904;2023-02-13T07:44:59;31.20;;;21.57;;
8622;SDS011;4349;47.552;8.904;2023-02-13T07:47:31;36.07;;;21.77;;
8622;SDS011;4349;47.552;8.904;2023-02-13T07:49:59;34.37;;;21.87;;
8622;SDS011;4349;47.552;8.904;2023-02-13T07:52:29;31.90;;;21.20;;
8622;SDS011;4349;47.552;8.904;2023-02-13T07:54:57;32.50;;;21.77;;
8622;SDS011;4349;47.552;8.904;2023-02-13T07:57:25;32.60;;;20.83;;
8622;SDS011;4349;47.552;8.904;2023-02-13T07:59:55;31.47;;;21.47;;
8622;SDS011;4349;47.552;8.904;2023-02-13T08:02:24;33.80;;;21.60;;
8622;SDS011;4349;47.552;8.904;2023-02-13T08:04:52;31.67;;;21.47;;
8622;SDS011;4349;47.552;8.904;2023-02-13T08:07:21;34.43;;;21.70;;
8622;SDS011;4349;47.552;8.904;2023-02-13T08:09:50;32.50;;;21.33;;
8622;SDS011;4349;47.552;8.904;2023-02-13T08:12:35;35.80;;;21.87;;
8622;SDS011;4349;47.552;8.904;2023-02-13T08:15:03;35.47;;;21.20;;
8622;SDS011;4349;47.552;8.904;2023-02-13T08:17:32;33.17;;;21.17;;
8622;SDS011;4349;47.552;8.904;2023-02-13T08:20:01;33.77;;;20.67;;
8622;SDS011;4349;47.552;8.904;2023-02-13T08:22:29;31.90;;;21.23;;
8622;SDS011;4349;47.552;8.904;2023-02-13T08:25:11;34.53;;;20.80;;
8622;SDS011;4349;47.552;8.904;2023-02-13T08:27:38;33.20;;;21.77;;
8622;SDS011;4349;47.552;8.904;2023-02-13T08:30:07;31.87;;;21.83;;
8622;SDS011;4349;47.552;8.904;2023-02-13T08:32:35;32.93;;;22.37;;
8622;SDS011;4349;47.552;8.904;2023-02-13T08:35:18;33.47;;;21.27;;
8622;SDS011;4349;47.552;8.904;2023-02-13T08:37:46;33.10;;;21.13;;
8622;SDS011;4349;47.552;8.904;2023-02-13T08:40:16;32.40;;;21.37;;
8622;SDS011;4349;47.552;8.904;2023-02-13T08:42:45;33.17;;;21.43;;
8622;SDS011;4349;47.552;8.904;2023-02-13T08:45:13;37.03;;;22.80;;
8622;SDS011;4349;47.552;8.904;2023-02-13T08:47:42;33.13;;;21.90;;
8622;SDS011;4349;47.552;8.904;2023-02-13T08:50:09;32.47;;;21.47;;
8622;SDS011;4349;47.552;8.904;2023-02-13T08:52:38;31.37;;;20.77;;
8622;SDS011;4349;47.552;8.904;2023-02-13T08:55:08;32.63;;;21.40;;
8622;SDS011;4349;47.552;8.904;2023-02-13T08:57:37;36.23;;;22.43;;
8622;SDS011;4349;47.552;8.904;2023-02-13T09:00:06;34.23;;;22.00;;
8622;SDS011;4349;47.552;8.904;2023-02-13T09:02:34;34.77;;;21.50;;
8622;SDS011;4349;47.552;8.904;2023-02-13T09:05:02;30.67;;;21.10;;
8622;SDS011;4349;47.552;8.904;2023-02-13T09:07:30;31.47;;;21.27;;
8622;SDS011;4349;47.552;8.904;2023-02-13T09:09:57;37.27;;;22.33;;
8622;SDS011;4349;47.552;8.904;2023-02-13T09:12:27;33.10;;;21.57;;
8622;SDS011;4349;47.552;8.904;2023-02-13T09:14:58;36.80;;;21.10;;
8622;SDS011;4349;47.552;8.904;2023-02-13T09:17:27;33.30;;;22.03;;
8622;SDS011;4349;47.552;8.904;2023-02-13T09:19:54;33.80;;;21.40;;
8622;SDS011;4349;47.552;8.904;2023-02-13T09:22:23;33.97;;;21.03;;
8622;SDS011;4349;47.552;8.904;2023-02-13T09:24:51;33.60;;;21.80;;
8622;SDS011;4349;47.552;8.904;2023-02-13T09:27:19;32.27;;;21.30;;
8622;SDS011;4349;47.552;8.904;2023-02-13T09:29:49;31.83;;;21.07;;
8622;SDS011;4349;47.552;8.904;2023-02-13T09:32:18;31.37;;;20.90;;
8622;SDS011;4349;47.552;8.904;2023-02-13T09:34:47;31.57;;;21.07;;
8622;SDS011;4349;47.552;8.904;2023-02-13T09:37:15;34.33;;;21.67;;
8622;SDS011;4349;47.552;8.904;2023-02-13T09:39:44;32.23;;;21.47;;
8622;SDS011;4349;47.552;8.904;2023-02-13T09:42:14;34.33;;;22.37;;
8622;SDS011;4349;47.552;8.904;2023-02-13T09:44:44;35.30;;;21.47;;
8622;SDS011;4349;47.552;8.904;2023-02-13T09:47:13;33.43;;;20.67;;
8622;SDS011;4349;47.552;8.904;2023-02-13T09:49:46;33.53;;;21.60;;
8622;SDS011;4349;47.552;8.904;2023-02-13T09:52:15;34.33;;;21.93;;
8622;SDS011;4349;47.552;8.904;2023-02-13T09:54:42;34.27;;;21.50;;
8622;SDS011;4349;47.552;8.904;2023-02-13T09:57:14;36.27;;;21.27;;
8622;SDS011;4349;47.552;8.904;2023-02-13T09:59:45;33.10;;;21.00;;
8622;SDS011;4349;47.552;8.904;2023-02-13T10:02:21;33.17;;;21.27;;
8622;SDS011;4349;47.552;8.904;2023-02-13T10:04:55;31.10;;;20.67;;
8622;SDS011;4349;47.552;8.904;2023-02-13T10:07:29;34.40;;;22.67;;
8622;SDS011;4349;47.552;8.904;2023-02-13T10:10:02;33.33;;;21.03;;
8622;SDS011;4349;47.552;8.904;2023-02-13T10:12:38;34.50;;;21.63;;
8622;SDS011;4349;47.552;8.904;2023-02-13T10:15:14;34.47;;;22.03;;
8622;SDS011;4349;47.552;8.904;2023-02-13T10:17:43;30.93;;;20.67;;
8622;SDS011;4349;47.552;8.904;2023-02-13T10:20:18;33.83;;;21.17;;
8622;SDS011;4349;47.552;8.904;2023-02-13T10:22:50;33.10;;;21.77;;
8622;SDS011;4349;47.552;8.904;2023-02-13T10:25:19;31.33;;;20.80;;
8622;SDS011;4349;47.552;8.904;2023-02-13T10:27:48;32.13;;;20.07;;
8622;SDS011;4349;47.552;8.904;2023-02-13T10:30:20;33.83;;;19.77;;
8622;SDS011;4349;47.552;8.904;2023-02-13T10:32:51;31.37;;;20.13;;
8622;SDS011;4349;47.552;8.904;2023-02-13T10:35:37;34.07;;;20.80;;
8622;SDS011;4349;47.552;8.904;2023-02-13T10:38:11;32.50;;;21.20;;
8622;SDS011;4349;47.552;8.904;2023-02-13T10:40:42;30.60;;;20.47;;
8622;SDS011;4349;47.552;8.904;2023-02-13T10:43:14;31.43;;;20.17;;
8622;SDS011;4349;47.552;8.904;2023-02-13T10:45:48;30.50;;;19.53;;
8622;SDS011;4349;47.552;8.904;2023-02-13T10:48:21;32.30;;;21.47;;
8622;SDS011;4349;47.552;8.904;2023-02-13T10:50:55;33.97;;;20.37;;
8622;SDS011;4349;47.552;8.904;2023-02-13T10:53:29;33.83;;;21.33;;
8622;SDS011;4349;47.552;8.904;2023-02-13T10:56:01;32.27;;;20.97;;
8622;SDS011;4349;47.552;8.904;2023-02-13T10:58:36;31.80;;;20.87;;
8622;SDS011;4349;47.552;8.904;2023-02-13T11:01:07;32.13;;;20.47;;
8622;SDS011;4349;47.552;8.904;2023-02-13T11:03:35;32.87;;;21.30;;
8622;SDS011;4349;47.552;8.904;2023-02-13T11:06:06;33.50;;;19.80;;
8622;SDS011;4349;47.552;8.904;2023-02-13T11:08:37;29.67;;;20.20;;
8622;SDS011;4349;47.552;8.904;2023-02-13T11:13:48;33.07;;;20.73;;
8622;SDS011;4349;47.552;8.904;2023-02-13T11:16:36;33.30;;;21.03;;
8622;SDS011;4349;47.552;8.904;2023-02-13T11:19:04;34.30;;;20.27;;
8622;SDS011;4349;47.552;8.904;2023-02-13T11:21:33;31.03;;;19.90;;
8622;SDS011;4349;47.552;8.904;2023-02-13T11:24:02;29.70;;;20.13;;
8622;SDS011;4349;47.552;8.904;2023-02-13T11:26:30;29.53;;;20.33;;
8622;SDS011;4349;47.552;8.904;2023-02-13T11:28:59;31.87;;;20.23;;
8622;SDS011;4349;47.552;8.904;2023-02-13T11:31:27;30.67;;;20.77;;
8622;SDS011;4349;47.552;8.904;2023-02-13T11:33:55;30.43;;;20.00;;
8622;SDS011;4349;47.552;8.904;2023-02-13T11:36:25;30.43;;;20.33;;
8622;SDS011;4349;47.552;8.904;2023-02-13T11:38:58;34.50;;;21.00;;
8622;SDS011;4349;47.552;8.904;2023-02-13T11:41:26;32.90;;;21.40;;
8622;SDS011;4349;47.552;8.904;2023-02-13T11:43:55;31.17;;;20.00;;
8622;SDS011;4349;47.552;8.904;2023-02-13T11:46:28;31.07;;;20.83;;
8622;SDS011;4349;47.552;8.904;2023-02-13T11:48:56;32.17;;;21.60;;
8622;SDS011;4349;47.552;8.904;2023-02-13T11:51:33;34.80;;;22.67;;
8622;SDS011;4349;47.552;8.904;2023-02-13T11:54:02;34.37;;;21.47;;
8622;SDS011;4349;47.552;8.904;2023-02-13T11:56:40;32.20;;;20.97;;
8622;SDS011;4349;47.552;8.904;2023-02-13T11:59:30;32.20;;;22.95;;
8622;SDS011;4349;47.552;8.904;2023-02-13T12:02:02;33.03;;;21.10;;
8622;SDS011;4349;47.552;8.904;2023-02-13T12:04:29;31.57;;;21.63;;
8622;SDS011;4349;47.552;8.904;2023-02-13T12:06:59;33.40;;;21.33;;
8622;SDS011;4349;47.552;8.904;2023-02-13T12:09:28;29.50;;;20.37;;
8622;SDS011;4349;47.552;8.904;2023-02-13T12:11:56;31.23;;;21.07;;
8622;SDS011;4349;47.552;8.904;2023-02-13T12:14:27;31.67;;;21.47;;
8622;SDS011;4349;47.552;8.904;2023-02-13T12:16:57;32.13;;;21.97;;
8622;SDS011;4349;47.552;8.904;2023-02-13T12:19:27;37.17;;;23.57;;
8622;SDS011;4349;47.552;8.904;2023-02-13T12:22:02;33.63;;;22.90;;
8622;SDS011;4349;47.552;8.904;2023-02-13T12:24:47;32.17;;;22.10;;
8622;SDS011;4349;47.552;8.904;2023-02-13T12:27:22;35.30;;;24.13;;
8622;SDS011;4349;47.552;8.904;2023-02-13T12:29:55;35.83;;;24.13;;
8622;SDS011;4349;47.552;8.904;2023-02-13T12:32:27;34.73;;;23.70;;
8622;SDS011;4349;47.552;8.904;2023-02-13T12:35:00;35.87;;;23.77;;
8622;SDS011;4349;47.552;8.904;2023-02-13T12:37:41;33.73;;;22.87;;
8622;SDS011;4349;47.552;8.904;2023-02-13T12:40:19;35.97;;;23.27;;
8622;SDS011;4349;47.552;8.904;2023-02-13T12:42:52;36.40;;;23.27;;
8622;SDS011;4349;47.552;8.904;2023-02-13T12:45:24;35.70;;;23.17;;
8622;SDS011;4349;47.552;8.904;2023-02-13T12:47:59;34.33;;;22.93;;
8622;SDS011;4349;47.552;8.904;2023-02-13T12:50:31;34.63;;;22.20;;
8622;SDS011;4349;47.552;8.904;2023-02-13T12:53:06;30.50;;;20.77;;
8622;SDS011;4349;47.552;8.904;2023-02-13T12:58:33;35.00;;;23.57;;
8622;SDS011;4349;47.552;8.904;2023-02-13T13:01:07;33.60;;;21.43;;
8622;SDS011;4349;47.552;8.904;2023-02-13T13:03:38;35.40;;;23.30;;
8622;SDS011;4349;47.552;8.904;2023-02-13T13:06:12;39.13;;;25.77;;
8622;SDS011;4349;47.552;8.904;2023-02-13T13:08:58;35.80;;;23.23;;
8622;SDS011;4349;47.552;8.904;2023-02-13T13:14:23;35.70;;;22.87;;
8622;SDS011;4349;47.552;8.904;2023-02-13T13:16:55;40.10;;;23.60;;
8622;SDS011;4349;47.552;8.904;2023-02-13T13:19:26;37.93;;;23.03;;
8622;SDS011;4349;47.552;8.904;2023-02-13T13:21:56;33.53;;;21.83;;
8622;SDS011;4349;47.552;8.904;2023-02-13T13:24:31;35.73;;;23.33;;
8622;SDS011;4349;47.552;8.904;2023-02-13T13:27:00;35.93;;;23.00;;
8622;SDS011;4349;47.552;8.904;2023-02-13T13:29:31;38.70;;;24.87;;
8622;SDS011;4349;47.552;8.904;2023-02-13T13:32:01;44.53;;;25.87;;
8622;SDS011;4349;47.552;8.904;2023-02-13T13:34:31;31.07;;;21.57;;
8622;SDS011;4349;47.552;8.904;2023-02-13T13:37:01;36.40;;;24.57;;
8622;SDS011;4349;47.552;8.904;2023-02-13T13:39:33;33.60;;;21.57;;
8622;SDS011;4349;47.552;8.904;2023-02-13T13:42:04;32.33;;;22.70;;
8622;SDS011;4349;47.552;8.904;2023-02-13T13:44:51;34.23;;;21.87;;
8622;SDS011;4349;47.552;8.904;2023-02-13T13:47:22;33.93;;;22.67;;
8622;SDS011;4349;47.552;8.904;2023-02-13T13:49:51;34.27;;;22.50;;
8622;SDS011;4349;47.552;8.904;2023-02-13T13:52:21;37.50;;;23.60;;
8622;SDS011;4349;47.552;8.904;2023-02-13T13:54:49;32.23;;;21.33;;
8622;SDS011;4349;47.552;8.904;2023-02-13T13:57:19;34.60;;;23.03;;
8622;SDS011;4349;47.552;8.904;2023-02-13T14:02:46;34.20;;;22.53;;
8622;SDS011;4349;47.552;8.904;2023-02-13T14:05:24;34.93;;;22.43;;
8622;SDS011;4349;47.552;8.904;2023-02-13T14:07:52;33.53;;;22.80;;
8622;SDS011;4349;47.552;8.904;2023-02-13T14:13:06;30.70;;;22.07;;
8622;SDS011;4349;47.552;8.904;2023-02-13T14:15:50;30.17;;;21.30;;
8622;SDS011;4349;47.552;8.904;2023-02-13T14:18:19;36.17;;;22.47;;
8622;SDS011;4349;47.552;8.904;2023-02-13T14:20:51;33.77;;;22.57;;
8622;SDS011;4349;47.552;8.904;2023-02-13T14:23:26;34.23;;;23.13;;
8622;SDS011;4349;47.552;8.904;2023-02-13T14:28:40;34.10;;;23.47;;
8622;SDS011;4349;47.552;8.904;2023-02-13T14:31:09;31.63;;;22.47;;
8622;SDS011;4349;47.552;8.904;2023-02-13T14:33:45;32.67;;;22.83;;
8622;SDS011;4349;47.552;8.904;2023-02-13T14:36:18;32.73;;;22.70;;
8622;SDS011;4349;47.552;8.904;2023-02-13T14:38:53;32.47;;;22.17;;
8622;SDS011;4349;47.552;8.904;2023-02-13T14:44:13;32.00;;;22.80;;
8622;SDS011;4349;47.552;8.904;2023-02-13T14:46:42;34.40;;;22.90;;
8622;SDS011;4349;47.552;8.904;2023-02-13T14:49:16;32.97;;;21.70;;
8622;SDS011;4349;47.552;8.904;2023-02-13T14:51:45;31.07;;;22.43;;
8622;SDS011;4349;47.552;8.904;2023-02-13T14:54:15;33.03;;;22.60;;
8622;SDS011;4349;47.552;8.904;2023-02-13T14:56:45;32.20;;;21.77;;
8622;SDS011;4349;47.552;8.904;2023-02-13T14:59:14;28.73;;;20.93;;
8622;SDS011;4349;47.552;8.904;2023-02-13T15:01:45;31.77;;;21.53;;
8622;SDS011;4349;47.552;8.904;2023-02-13T15:04:18;31.37;;;21.87;;
8622;SDS011;4349;47.552;8.904;2023-02-13T15:06:48;30.43;;;20.70;;
8622;SDS011;4349;47.552;8.904;2023-02-13T15:09:18;31.37;;;21.57;;
8622;SDS011;4349;47.552;8.904;2023-02-13T15:11:46;30.37;;;21.13;;
8622;SDS011;4349;47.552;8.904;2023-02-13T15:14:18;32.07;;;21.60;;
8622;SDS011;4349;47.552;8.904;2023-02-13T15:16:46;32.13;;;20.07;;
8622;SDS011;4349;47.552;8.904;2023-02-13T15:19:14;31.77;;;21.70;;
8622;SDS011;4349;47.552;8.904;2023-02-13T15:21:47;31.47;;;22.00;;
8622;SDS011;4349;47.552;8.904;2023-02-13T15:24:15;30.33;;;21.07;;
8622;SDS011;4349;47.552;8.904;2023-02-13T15:26:42;31.77;;;21.50;;
8622;SDS011;4349;47.552;8.904;2023-02-13T15:29:16;32.57;;;22.43;;
8622;SDS011;4349;47.552;8.904;2023-02-13T15:31:54;30.83;;;22.10;;
8622;SDS011;4349;47.552;8.904;2023-02-13T15:34:24;31.83;;;21.87;;
8622;SDS011;4349;47.552;8.904;2023-02-13T15:36:53;29.20;;;21.77;;